KGCM

Claremore Regional Airport

Claremore, Oklahoma, USA
METAR KGCM 231415Z AUTO 00000KT 4SM BR OVC005 02/02 A3031 RMK AO2
Observed Flight Rules
Feb-23 @ 14:15 UTC (14 minutes ago) Instrument Flight Rules
Wind Visibility Clouds Conditions
Calm 4 miles
  • Overcast at 500' AGL
  • Mist
Temperatures Readings
Current 2°C / 36°F
Dewpoint 2°C / 36°F
Humidity 100%
Altimeter 30.31" Hg
Pressure 1026 hPa
Elevation 221
METAR KGCM 231415Z AUTO 00000KT 4SM BR OVC005 02/02 A3031 RMK AO2
Observed Flight Rules
Feb-23 @ 14:15 UTC
(14 minutes ago)
IFR
Wind Visibility
Calm 4 miles
Clouds
  • Overcast at 500' AGL
Conditions
  • Mist
Temperature Dewpoint
2°C / 36°F 2°C / 36°F
Humidity Altimeter Pressure
100% 30.31" Hg 1026 hPa